Time;durP1;ratioP1;P1;durP2;ratioP2;P2;SDS_P1;SDS_P2;PMS_P1;PMS_P2;Temp;Humidity;BMP_temperature;BMP_pressure;BME280_temperature;BME280_humidity;BME280_pressure;Samples;Min_cycle;Max_cycle;Signal;HPM_P1;HPM_P2
2022/08/12 00:44:12;;;;;;;3.22;0.90;;;;;;;;;;5263043;28;20021;-68
2022/08/12 00:46:48;;;;;;;6.25;1.20;;;;;;;;;;5263296;28;20113;-69
2022/08/12 00:49:22;;;;;;;4.50;0.90;;;;;;;;;;5263076;28;20017;-68
2022/08/12 00:52:06;;;;;;;3.40;1.10;;;;;;;;;;5262298;28;20451;-69
2022/08/12 00:54:42;;;;;;;2.85;1.08;;;;;;;;;;5262755;28;20017;-69
2022/08/12 00:57:17;;;;;;;3.80;0.80;;;;;;;;;;5261879;28;20052;-69
2022/08/12 00:59:56;;;;;;;4.93;1.10;;;;;;;;;;5262769;28;20020;-69
2022/08/12 01:02:28;;;;;;;9.02;1.15;;;;;;;;;;5262747;28;20020;-69
2022/08/12 01:13:32;;;;;;;3.95;0.80;;;;;;;;;;5262976;28;20033;-69
2022/08/12 01:16:05;;;;;;;3.13;0.90;;;;;;;;;;5262149;28;20028;-70
2022/08/12 01:18:38;;;;;;;4.03;0.90;;;;;;;;;;5261452;28;20029;-69
2022/08/12 01:21:16;;;;;;;3.03;0.93;;;;;;;;;;5262602;28;20486;-68
2022/08/12 01:24:00;;;;;;;4.87;1.13;;;;;;;;;;5261852;28;20555;-69
2022/08/12 01:26:31;;;;;;;7.93;1.20;;;;;;;;;;5262132;28;20276;-69
2022/08/12 01:29:03;;;;;;;4.30;0.95;;;;;;;;;;5262217;28;20017;-69
2022/08/12 01:31:35;;;;;;;5.13;1.20;;;;;;;;;;5261816;28;20017;-70
2022/08/12 01:34:09;;;;;;;4.00;0.73;;;;;;;;;;5261670;28;20464;-69
2022/08/12 01:36:44;;;;;;;4.13;0.90;;;;;;;;;;5261656;28;20032;-70
2022/08/12 01:39:16;;;;;;;3.60;1.15;;;;;;;;;;5261322;28;20572;-70
2022/08/12 01:41:50;;;;;;;2.15;1.20;;;;;;;;;;5261891;28;20105;-70
2022/08/12 01:44:22;;;;;;;4.65;1.05;;;;;;;;;;5262052;28;20017;-69
2022/08/12 01:46:59;;;;;;;5.40;1.00;;;;;;;;;;5260163;28;20025;-70
2022/08/12 01:49:43;;;;;;;4.53;0.90;;;;;;;;;;5262095;28;20047;-70
2022/08/12 01:52:33;;;;;;;3.58;1.10;;;;;;;;;;5261652;28;20107;-70
2022/08/12 01:55:05;;;;;;;4.05;0.80;;;;;;;;;;5261097;28;20475;-70
2022/08/12 01:57:46;;;;;;;4.70;0.90;;;;;;;;;;5261415;28;20110;-70
2022/08/12 02:00:18;;;;;;;3.92;1.10;;;;;;;;;;5261216;28;20088;-70
2022/08/12 02:03:02;;;;;;;6.45;1.10;;;;;;;;;;5261491;28;20124;-70
2022/08/12 02:11:46;;;;;;;4.30;0.88;;;;;;;;;;5262093;28;20064;-69
2022/08/12 02:14:36;;;;;;;6.85;2.03;;;;;;;;;;5259898;28;20116;-70
2022/08/12 02:17:26;;;;;;;6.03;1.20;;;;;;;;;;5261620;28;20064;-69
2022/08/12 02:20:06;;;;;;;2.65;1.10;;;;;;;;;;5260887;28;20021;-69
2022/08/12 02:22:43;;;;;;;6.10;1.23;;;;;;;;;;5260754;28;20025;-70
2022/08/12 02:25:16;;;;;;;5.47;1.20;;;;;;;;;;5261565;28;20096;-70
2022/08/12 02:27:49;;;;;;;3.22;1.48;;;;;;;;;;5260990;28;20017;-70
2022/08/12 02:30:24;;;;;;;6.97;1.48;;;;;;;;;;5260919;28;20033;-69
2022/08/12 02:32:56;;;;;;;4.95;1.17;;;;;;;;;;5260948;28;20025;-70
2022/08/12 02:35:28;;;;;;;3.45;1.00;;;;;;;;;;5260408;28;20029;-69
2022/08/12 02:38:01;;;;;;;3.30;1.35;;;;;;;;;;5260721;28;20024;-68
2022/08/12 02:40:34;;;;;;;7.93;1.35;;;;;;;;;;5261308;28;20029;-68
2022/08/12 02:43:10;;;;;;;4.93;1.42;;;;;;;;;;5260324;28;20029;-68
2022/08/12 02:45:46;;;;;;;9.68;1.35;;;;;;;;;;5260721;28;20028;-69
2022/08/12 02:48:29;;;;;;;3.28;1.40;;;;;;;;;;5261079;28;20032;-68
2022/08/12 02:51:03;;;;;;;8.65;1.48;;;;;;;;;;5260205;28;20013;-68
2022/08/12 02:53:35;;;;;;;3.97;1.80;;;;;;;;;;5260751;28;20419;-68
2022/08/12 02:56:06;;;;;;;4.28;1.83;;;;;;;;;;5260760;28;20040;-69
2022/08/12 02:58:38;;;;;;;11.00;2.03;;;;;;;;;;5262146;28;20017;-69
2022/08/12 03:01:09;;;;;;;9.02;2.03;;;;;;;;;;5265383;28;20021;-69
2022/08/12 03:03:40;;;;;;;14.60;2.40;;;;;;;;;;5264115;28;20025;-68
2022/08/12 03:06:15;;;;;;;4.47;1.80;;;;;;;;;;5265143;28;20323;-68
2022/08/12 03:08:47;;;;;;;10.65;2.13;;;;;;;;;;5264812;28;20410;-68
2022/08/12 03:11:24;;;;;;;5.72;1.70;;;;;;;;;;5264753;28;20047;-68
2022/08/12 03:13:59;;;;;;;6.43;1.95;;;;;;;;;;5264795;28;20150;-68
2022/08/12 03:16:31;;;;;;;7.15;1.85;;;;;;;;;;5264572;28;20099;-69
2022/08/12 03:19:02;;;;;;;6.70;2.42;;;;;;;;;;5263998;28;20013;-69
2022/08/12 03:21:36;;;;;;;6.07;2.08;;;;;;;;;;5264676;28;20486;-69
2022/08/12 03:24:08;;;;;;;5.35;1.67;;;;;;;;;;5264730;28;20492;-68
2022/08/12 03:26:43;;;;;;;7.63;2.22;;;;;;;;;;5263886;28;20021;-69
2022/08/12 03:29:15;;;;;;;6.45;2.25;;;;;;;;;;5264960;28;20021;-68
2022/08/12 03:31:47;;;;;;;4.47;2.10;;;;;;;;;;5263593;28;20075;-68
2022/08/12 03:34:22;;;;;;;5.97;1.80;;;;;;;;;;5264774;28;20059;-68
2022/08/12 03:36:54;;;;;;;6.05;2.40;;;;;;;;;;5263889;28;20033;-68
2022/08/12 03:42:20;;;;;;;5.63;2.28;;;;;;;;;;5264551;28;20025;-68
2022/08/12 04:02:15;;;;;;;9.43;2.92;;;;;;;;;;5264074;28;20025;-69
2022/08/12 04:04:46;;;;;;;5.57;2.78;;;;;;;;;;5263789;28;20040;-69
2022/08/12 04:07:18;;;;;;;12.48;3.67;;;;;;;;;;5263047;28;20025;-69
2022/08/12 04:09:50;;;;;;;8.77;3.65;;;;;;;;;;5262942;28;20017;-68
2022/08/12 04:15:17;;;;;;;7.97;3.28;;;;;;;;;;5263225;28;20396;-68
2022/08/12 04:17:49;;;;;;;8.50;3.17;;;;;;;;;;5263437;28;20040;-69
2022/08/12 04:20:21;;;;;;;9.55;3.70;;;;;;;;;;5263472;28;20021;-69
2022/08/12 04:22:53;;;;;;;4.97;3.15;;;;;;;;;;5262839;28;20394;-69
2022/08/12 04:25:25;;;;;;;10.70;3.65;;;;;;;;;;5263555;28;20029;-68
2022/08/12 04:27:56;;;;;;;7.53;3.70;;;;;;;;;;5262568;28;20027;-69
2022/08/12 04:30:27;;;;;;;10.70;4.50;;;;;;;;;;5263649;28;20100;-69
2022/08/12 04:32:59;;;;;;;9.88;4.00;;;;;;;;;;5262929;28;20271;-69
2022/08/12 04:35:30;;;;;;;10.25;3.92;;;;;;;;;;5262760;28;20017;-68
2022/08/12 04:38:01;;;;;;;16.58;3.83;;;;;;;;;;5263130;28;20028;-69
2022/08/12 04:40:35;;;;;;;8.60;3.92;;;;;;;;;;5263276;28;20026;-69
2022/08/12 04:43:06;;;;;;;13.68;4.50;;;;;;;;;;5262585;28;20079;-69
2022/08/12 04:45:38;;;;;;;13.77;3.83;;;;;;;;;;5262925;28;20437;-69
2022/08/12 04:48:09;;;;;;;6.68;3.45;;;;;;;;;;5262847;28;20027;-68
2022/08/12 04:50:40;;;;;;;8.10;4.15;;;;;;;;;;5262679;28;20028;-69
2022/08/12 04:53:12;;;;;;;9.18;4.03;;;;;;;;;;5263224;28;20268;-68
2022/08/12 04:55:45;;;;;;;13.82;4.53;;;;;;;;;;5262326;28;20029;-68
2022/08/12 04:58:16;;;;;;;9.82;4.70;;;;;;;;;;5262848;28;20024;-68
2022/08/12 05:00:47;;;;;;;13.82;4.20;;;;;;;;;;5262494;28;20379;-69
2022/08/12 05:03:18;;;;;;;6.00;4.65;;;;;;;;;;5262305;28;20047;-69
2022/08/12 05:05:50;;;;;;;7.00;4.30;;;;;;;;;;5262715;28;20039;-69
2022/08/12 05:08:22;;;;;;;11.52;4.72;;;;;;;;;;5262561;28;20271;-69
2022/08/12 05:10:53;;;;;;;8.80;4.30;;;;;;;;;;5261854;28;20033;-69
2022/08/12 05:13:28;;;;;;;7.28;4.10;;;;;;;;;;5262882;28;20511;-70
2022/08/12 05:15:59;;;;;;;7.65;4.13;;;;;;;;;;5262057;28;20028;-69
2022/08/12 05:18:35;;;;;;;4.85;3.60;;;;;;;;;;5262168;28;20016;-70
2022/08/12 05:21:07;;;;;;;4.28;3.67;;;;;;;;;;5262072;28;20021;-70
2022/08/12 05:23:39;;;;;;;10.15;3.90;;;;;;;;;;5261278;28;20029;-69
2022/08/12 05:26:10;;;;;;;5.90;3.80;;;;;;;;;;5262005;28;20020;-69
2022/08/12 05:28:41;;;;;;;10.75;3.95;;;;;;;;;;5262254;28;20027;-70
2022/08/12 05:31:12;;;;;;;10.10;4.30;;;;;;;;;;5261575;28;20017;-69
2022/08/12 05:33:44;;;;;;;9.63;4.47;;;;;;;;;;5261981;28;20291;-69
2022/08/12 05:36:16;;;;;;;8.57;4.18;;;;;;;;;;5262045;28;20315;-69
2022/08/12 05:38:56;;;;;;;4.72;3.78;;;;;;;;;;5261307;28;20052;-70
2022/08/12 05:41:28;;;;;;;6.53;3.75;;;;;;;;;;5262136;28;20092;-68
2022/08/12 05:44:01;;;;;;;5.95;4.03;;;;;;;;;;5261455;28;20020;-68
2022/08/12 05:46:33;;;;;;;6.28;4.05;;;;;;;;;;5261340;28;20024;-68
2022/08/12 05:49:04;;;;;;;11.30;4.07;;;;;;;;;;5261725;28;20464;-69
2022/08/12 05:51:36;;;;;;;7.60;3.75;;;;;;;;;;5261469;28;20471;-69
2022/08/12 05:54:09;;;;;;;8.88;4.50;;;;;;;;;;5261158;28;20013;-69
2022/08/12 05:56:40;;;;;;;8.02;3.90;;;;;;;;;;5261219;28;20075;-68
2022/08/12 05:59:12;;;;;;;9.15;4.45;;;;;;;;;;5260939;28;20013;-69
2022/08/12 06:01:44;;;;;;;11.35;3.97;;;;;;;;;;5261599;28;20021;-68
2022/08/12 06:04:15;;;;;;;12.93;3.63;;;;;;;;;;5261424;28;20025;-68
2022/08/12 06:06:51;;;;;;;8.43;4.25;;;;;;;;;;5260626;28;20399;-69
2022/08/12 06:09:25;;;;;;;10.70;4.35;;;;;;;;;;5261652;28;20615;-68
2022/08/12 06:11:56;;;;;;;12.07;3.95;;;;;;;;;;5261135;28;20054;-68
2022/08/12 06:14:27;;;;;;;6.93;3.75;;;;;;;;;;5260979;28;20382;-70
2022/08/12 06:16:59;;;;;;;6.75;4.32;;;;;;;;;;5261144;28;20472;-69
2022/08/12 06:19:31;;;;;;;7.72;3.80;;;;;;;;;;5261373;28;20040;-69
2022/08/12 06:22:02;;;;;;;7.45;3.95;;;;;;;;;;5260631;28;20048;-69
2022/08/12 06:24:33;;;;;;;8.23;3.60;;;;;;;;;;5261495;28;20080;-70
2022/08/12 06:27:04;;;;;;;8.60;3.67;;;;;;;;;;5261287;28;20267;-69
2022/08/12 06:29:37;;;;;;;4.97;3.22;;;;;;;;;;5260705;28;20275;-68
2022/08/12 06:32:08;;;;;;;9.30;3.97;;;;;;;;;;5261386;28;20041;-68
2022/08/12 06:34:39;;;;;;;6.53;3.90;;;;;;;;;;5260121;28;20122;-68
2022/08/12 06:37:10;;;;;;;9.52;3.60;;;;;;;;;;5261417;28;20302;-68
2022/08/12 06:39:41;;;;;;;8.25;3.88;;;;;;;;;;5260896;28;20013;-68
2022/08/12 06:45:03;;;;;;;10.80;3.97;;;;;;;;;;5261120;28;20259;-68
2022/08/12 06:47:37;;;;;;;12.00;3.47;;;;;;;;;;5260788;28;20025;-68
2022/08/12 06:50:14;;;;;;;5.75;3.00;;;;;;;;;;5260999;28;20503;-68
2022/08/12 06:52:45;;;;;;;10.48;3.08;;;;;;;;;;5260867;28;20025;-69
2022/08/12 06:55:19;;;;;;;9.73;3.08;;;;;;;;;;5260936;28;20031;-68
2022/08/12 06:58:00;;;;;;;7.40;2.40;;;;;;;;;;5260036;28;20107;-69
2022/08/12 07:00:32;;;;;;;8.90;2.97;;;;;;;;;;5261131;28;20097;-69
2022/08/12 07:03:04;;;;;;;10.15;2.78;;;;;;;;;;5260317;28;20028;-68
2022/08/12 07:05:35;;;;;;;7.57;2.85;;;;;;;;;;5260686;28;20025;-71
2022/08/12 07:08:07;;;;;;;7.07;2.85;;;;;;;;;;5261065;28;20025;-72
2022/08/12 07:10:42;;;;;;;11.27;2.65;;;;;;;;;;5260455;28;20013;-73
2022/08/12 07:13:13;;;;;;;10.25;3.03;;;;;;;;;;5260995;28;20021;-72
2022/08/12 07:15:45;;;;;;;6.15;2.92;;;;;;;;;;5260443;28;20044;-72
2022/08/12 07:18:18;;;;;;;9.57;2.05;;;;;;;;;;5260444;28;20071;-73
2022/08/12 07:20:50;;;;;;;5.38;1.85;;;;;;;;;;5260785;28;20025;-72
2022/08/12 07:23:21;;;;;;;6.83;2.17;;;;;;;;;;5261051;28;20021;-73
2022/08/12 07:25:52;;;;;;;6.60;2.03;;;;;;;;;;5258699;28;20758;-73
2022/08/12 07:28:26;;;;;;;8.93;2.22;;;;;;;;;;5280174;28;20266;-73
2022/08/12 07:30:58;;;;;;;8.02;1.55;;;;;;;;;;5280398;28;20032;-73
2022/08/12 07:33:30;;;;;;;7.10;1.67;;;;;;;;;;5281279;28;20017;-73
2022/08/12 07:36:01;;;;;;;6.78;1.38;;;;;;;;;;5271749;28;20044;-72
2022/08/12 07:38:33;;;;;;;4.63;1.75;;;;;;;;;;5280721;28;20498;-72
2022/08/12 07:41:04;;;;;;;8.52;1.42;;;;;;;;;;5281012;28;20467;-72
2022/08/12 07:43:37;;;;;;;11.70;1.33;;;;;;;;;;5280873;28;20063;-72
2022/08/12 07:46:10;;;;;;;5.13;1.45;;;;;;;;;;5280195;28;20594;-72
2022/08/12 07:48:42;;;;;;;7.95;1.40;;;;;;;;;;5284924;28;20027;-73
2022/08/12 07:51:15;;;;;;;6.38;1.10;;;;;;;;;;5284976;28;20498;-72
2022/08/12 07:53:46;;;;;;;5.93;1.30;;;;;;;;;;5284149;28;20107;-72
2022/08/12 07:56:18;;;;;;;7.60;1.15;;;;;;;;;;5284722;28;20171;-72
2022/08/12 07:58:50;;;;;;;6.53;1.08;;;;;;;;;;5284023;28;20379;-74
2022/08/12 08:01:21;;;;;;;6.40;1.17;;;;;;;;;;5284914;28;20025;-74
2022/08/12 08:06:44;;;;;;;7.53;1.15;;;;;;;;;;5283898;28;20255;-74
2022/08/12 08:09:16;;;;;;;16.73;1.95;;;;;;;;;;5284836;28;20484;-73
2022/08/12 08:14:38;;;;;;;11.45;1.30;;;;;;;;;;5283780;28;20029;-74
2022/08/12 08:17:10;;;;;;;10.55;1.20;;;;;;;;;;5284849;28;20021;-75
2022/08/12 08:19:41;;;;;;;14.95;1.98;;;;;;;;;;5284165;28;20028;-74
2022/08/12 08:22:12;;;;;;;14.73;1.37;;;;;;;;;;5284208;28;20016;-74
2022/08/12 08:24:44;;;;;;;7.53;1.53;;;;;;;;;;5283973;28;20347;-74
2022/08/12 08:27:15;;;;;;;16.13;1.83;;;;;;;;;;5284107;28;20890;-74
2022/08/12 08:29:47;;;;;;;7.50;1.55;;;;;;;;;;5284060;28;20095;-73
2022/08/12 08:32:18;;;;;;;9.82;1.15;;;;;;;;;;5284112;28;20016;-74
2022/08/12 08:34:49;;;;;;;5.27;1.00;;;;;;;;;;5283464;28;20467;-73
2022/08/12 08:37:20;;;;;;;6.85;1.02;;;;;;;;;;5284097;28;20310;-73
2022/08/12 08:39:51;;;;;;;6.70;1.13;;;;;;;;;;5283737;28;20100;-74
2022/08/12 08:42:38;;;;;;;7.45;1.00;;;;;;;;;;5284002;28;20271;-73
2022/08/12 08:45:12;;;;;;;8.15;1.40;;;;;;;;;;5283952;28;20044;-73
2022/08/12 08:47:47;;;;;;;10.50;1.02;;;;;;;;;;5283519;28;20356;-73
2022/08/12 08:50:19;;;;;;;8.63;1.20;;;;;;;;;;5283664;28;20027;-73
2022/08/12 08:52:50;;;;;;;9.48;0.98;;;;;;;;;;5283546;28;20017;-74
2022/08/12 08:55:21;;;;;;;6.23;1.33;;;;;;;;;;5283150;28;20051;-74
2022/08/12 08:57:53;;;;;;;6.20;1.15;;;;;;;;;;5283241;28;20487;-74
2022/08/12 09:00:24;;;;;;;11.02;1.00;;;;;;;;;;5283307;28;20009;-73
2022/08/12 09:02:55;;;;;;;14.67;1.40;;;;;;;;;;5282996;28;20383;-73
2022/08/12 09:05:26;;;;;;;7.85;0.90;;;;;;;;;;5283661;28;20270;-73
2022/08/12 09:07:59;;;;;;;9.75;0.82;;;;;;;;;;5283180;28;20100;-73
2022/08/12 09:10:32;;;;;;;5.57;0.70;;;;;;;;;;5282441;28;20123;-69
2022/08/12 09:15:53;;;;;;;7.18;0.88;;;;;;;;;;5282678;28;20479;-70
2022/08/12 09:18:26;;;;;;;4.87;0.87;;;;;;;;;;5282539;28;20029;-69
2022/08/12 09:20:57;;;;;;;7.65;0.80;;;;;;;;;;5282330;28;20020;-69
2022/08/12 09:23:28;;;;;;;7.90;0.80;;;;;;;;;;5282336;28;20024;-70
2022/08/12 09:26:01;;;;;;;8.95;1.10;;;;;;;;;;5282860;28;20029;-70
2022/08/12 09:28:34;;;;;;;7.78;1.08;;;;;;;;;;5282781;28;20016;-69
2022/08/12 09:31:05;;;;;;;7.47;0.95;;;;;;;;;;5282582;28;20028;-69
2022/08/12 09:33:36;;;;;;;9.70;1.00;;;;;;;;;;5282634;28;20013;-72
2022/08/12 09:36:07;;;;;;;6.85;0.70;;;;;;;;;;5282590;28;20024;-73
2022/08/12 09:38:39;;;;;;;5.27;0.87;;;;;;;;;;5281130;28;20021;-75
2022/08/12 09:41:14;;;;;;;5.78;0.60;;;;;;;;;;5282959;28;20024;-71
2022/08/12 09:46:36;;;;;;;2.85;0.70;;;;;;;;;;5282063;28;20038;-71
2022/08/12 09:49:08;;;;;;;8.05;0.70;;;;;;;;;;5282977;28;20109;-70
2022/08/12 09:51:40;;;;;;;5.22;0.77;;;;;;;;;;5281858;28;20017;-72
2022/08/12 10:00:33;;;;;;;4.82;0.70;;;;;;;;;;5281392;28;20064;-68
2022/08/12 10:03:08;;;;;;;10.63;0.93;;;;;;;;;;5282359;28;20406;-69
2022/08/12 10:05:41;;;;;;;5.57;0.70;;;;;;;;;;5281638;28;20032;-70
2022/08/12 10:08:13;;;;;;;6.88;0.70;;;;;;;;;;5281559;28;20027;-69
2022/08/12 10:13:42;;;;;;;4.80;0.75;;;;;;;;;;5282213;28;20020;-69
2022/08/12 10:16:17;;;;;;;7.70;0.50;;;;;;;;;;5280612;28;20108;-69
2022/08/12 10:18:56;;;;;;;3.47;0.73;;;;;;;;;;5280751;28;20028;-70
2022/08/12 10:21:37;;;;;;;2.83;0.70;;;;;;;;;;5279748;28;20067;-68
2022/08/12 10:24:09;;;;;;;6.45;0.77;;;;;;;;;;5281957;28;20024;-67
2022/08/12 10:29:43;;;;;;;3.53;0.90;;;;;;;;;;5283172;28;20425;-68
2022/08/12 10:32:22;;;;;;;3.63;0.60;;;;;;;;;;5282220;28;20096;-67
2022/08/12 10:34:53;;;;;;;6.05;0.80;;;;;;;;;;5281237;28;20054;-68
2022/08/12 10:37:25;;;;;;;4.80;0.82;;;;;;;;;;5282448;28;20476;-68
2022/08/12 10:39:56;;;;;;;6.30;0.70;;;;;;;;;;5282352;28;20017;-68
2022/08/12 10:45:17;;;;;;;5.18;0.70;;;;;;;;;;5282209;28;20024;-68
2022/08/12 10:47:52;;;;;;;2.05;0.50;;;;;;;;;;5280999;28;20036;-70
2022/08/12 10:50:24;;;;;;;6.22;0.77;;;;;;;;;;5281928;28;20099;-68
2022/08/12 10:52:55;;;;;;;6.07;0.70;;;;;;;;;;5281786;28;20028;-69
2022/08/12 10:55:27;;;;;;;5.10;0.60;;;;;;;;;;5281374;28;20477;-69
2022/08/12 10:57:58;;;;;;;8.00;0.70;;;;;;;;;;5282205;28;20021;-70
2022/08/12 11:00:33;;;;;;;7.43;0.63;;;;;;;;;;5281416;28;20052;-71
2022/08/12 11:03:06;;;;;;;6.15;0.60;;;;;;;;;;5280956;28;20134;-70
2022/08/12 11:05:38;;;;;;;6.07;0.70;;;;;;;;;;5281794;28;20033;-70
2022/08/12 11:08:11;;;;;;;5.68;0.57;;;;;;;;;;5282085;28;20039;-67
2022/08/12 11:10:43;;;;;;;5.85;0.70;;;;;;;;;;5280757;28;20041;-68
2022/08/12 11:13:14;;;;;;;3.80;0.60;;;;;;;;;;5281811;28;20063;-67
2022/08/12 11:15:45;;;;;;;6.63;0.73;;;;;;;;;;5280579;28;20437;-67
2022/08/12 11:18:16;;;;;;;6.70;0.60;;;;;;;;;;5281483;28;20278;-67
2022/08/12 11:20:47;;;;;;;5.20;0.50;;;;;;;;;;5281439;28;20103;-68
2022/08/12 11:23:19;;;;;;;6.93;0.60;;;;;;;;;;5282766;28;20035;-67
2022/08/12 11:25:51;;;;;;;2.72;0.60;;;;;;;;;;5283789;28;20095;-67
2022/08/12 11:28:22;;;;;;;4.05;0.65;;;;;;;;;;5284165;28;20103;-67
2022/08/12 11:30:53;;;;;;;2.80;0.55;;;;;;;;;;5284100;28;20027;-69
2022/08/12 11:33:24;;;;;;;7.70;0.80;;;;;;;;;;5285461;28;20070;-68
2022/08/12 11:36:02;;;;;;;6.85;0.80;;;;;;;;;;5285085;28;20035;-68
2022/08/12 11:38:33;;;;;;;5.63;0.73;;;;;;;;;;5284251;28;20120;-69
2022/08/12 11:41:05;;;;;;;8.40;0.70;;;;;;;;;;5285632;28;20100;-69
2022/08/12 11:43:36;;;;;;;4.10;0.80;;;;;;;;;;5285288;28;20038;-69
2022/08/12 11:46:07;;;;;;;2.80;0.70;;;;;;;;;;5284527;28;20027;-68
2022/08/12 11:48:38;;;;;;;5.20;0.60;;;;;;;;;;5285538;28;20059;-66
2022/08/12 11:51:09;;;;;;;6.73;0.77;;;;;;;;;;5284419;28;20017;-67
2022/08/12 11:53:41;;;;;;;5.43;0.70;;;;;;;;;;5284976;28;20342;-67
2022/08/12 11:56:12;;;;;;;5.85;0.50;;;;;;;;;;5284952;28;20024;-67
2022/08/12 11:58:43;;;;;;;3.15;0.60;;;;;;;;;;5283788;28;20021;-67
2022/08/12 12:01:14;;;;;;;5.23;0.70;;;;;;;;;;5284882;28;20099;-67
2022/08/12 12:03:46;;;;;;;4.72;0.60;;;;;;;;;;5284555;28;20020;-68
2022/08/12 12:06:19;;;;;;;5.03;0.50;;;;;;;;;;5283944;28;20095;-70
2022/08/12 12:08:50;;;;;;;7.70;0.70;;;;;;;;;;5284850;28;20028;-70
2022/08/12 12:11:22;;;;;;;3.00;0.50;;;;;;;;;;5284773;28;20024;-70
2022/08/12 12:13:54;;;;;;;5.33;0.60;;;;;;;;;;5283605;28;20099;-70
2022/08/12 12:16:25;;;;;;;3.38;0.90;;;;;;;;;;5284540;28;20020;-71
2022/08/12 12:18:56;;;;;;;6.55;0.60;;;;;;;;;;5284750;28;20083;-70
2022/08/12 12:21:27;;;;;;;4.90;0.60;;;;;;;;;;5283904;28;20078;-71
2022/08/12 12:23:59;;;;;;;2.70;0.85;;;;;;;;;;5284595;28;20036;-68
2022/08/12 12:26:30;;;;;;;4.17;0.60;;;;;;;;;;5283358;28;20146;-68
2022/08/12 12:29:01;;;;;;;9.00;0.73;;;;;;;;;;5284556;28;20081;-68
2022/08/12 12:31:32;;;;;;;4.90;0.80;;;;;;;;;;5283631;28;20027;-68
2022/08/12 12:34:03;;;;;;;4.78;0.90;;;;;;;;;;5283586;28;20378;-68
2022/08/12 12:36:34;;;;;;;3.28;0.55;;;;;;;;;;5283902;28;20052;-68
2022/08/12 12:39:05;;;;;;;4.47;0.95;;;;;;;;;;5278566;28;20024;-68
2022/08/12 12:41:37;;;;;;;6.47;0.90;;;;;;;;;;5282189;28;20020;-68
2022/08/12 12:44:08;;;;;;;2.00;0.50;;;;;;;;;;5283770;28;20455;-68
2022/08/12 12:46:39;;;;;;;6.10;0.60;;;;;;;;;;5282705;28;20024;-68
2022/08/12 12:49:10;;;;;;;7.43;0.80;;;;;;;;;;5282064;28;20044;-68
2022/08/12 12:51:41;;;;;;;3.37;0.60;;;;;;;;;;5283568;28;20027;-68
2022/08/12 12:54:12;;;;;;;5.87;0.60;;;;;;;;;;5282965;28;20020;-69
2022/08/12 12:56:48;;;;;;;5.30;0.60;;;;;;;;;;5283261;28;20032;-69
2022/08/12 12:59:22;;;;;;;7.63;0.70;;;;;;;;;;5283269;28;20291;-68
2022/08/12 13:01:54;;;;;;;5.05;0.80;;;;;;;;;;5282447;28;20024;-68
2022/08/12 13:04:26;;;;;;;5.70;0.82;;;;;;;;;;5283124;28;20016;-68
2022/08/12 13:06:57;;;;;;;2.75;0.65;;;;;;;;;;5283005;28;20052;-69
2022/08/12 13:09:29;;;;;;;4.63;0.90;;;;;;;;;;5268927;28;20545;-69
2022/08/12 13:12:01;;;;;;;6.57;0.80;;;;;;;;;;5261390;28;20028;-68
2022/08/12 13:14:32;;;;;;;8.93;0.77;;;;;;;;;;5278807;28;20020;-68
2022/08/12 13:17:03;;;;;;;9.53;1.10;;;;;;;;;;5281090;28;20028;-68
2022/08/12 13:19:35;;;;;;;6.77;0.80;;;;;;;;;;5280954;28;20024;-69
2022/08/12 13:22:16;;;;;;;7.28;0.93;;;;;;;;;;5282844;28;20116;-68
2022/08/12 13:24:50;;;;;;;8.23;0.88;;;;;;;;;;5282304;28;20104;-69
2022/08/12 13:27:21;;;;;;;4.63;1.02;;;;;;;;;;5282260;28;20461;-69
2022/08/12 13:29:53;;;;;;;3.38;0.90;;;;;;;;;;5281737;28;20040;-69
2022/08/12 13:32:28;;;;;;;8.48;0.82;;;;;;;;;;5282732;28;20417;-69
2022/08/12 13:35:01;;;;;;;5.22;0.82;;;;;;;;;;5282818;28;20029;-67
2022/08/12 13:37:33;;;;;;;12.63;0.90;;;;;;;;;;5281524;28;20490;-68
2022/08/12 13:40:04;;;;;;;9.77;0.97;;;;;;;;;;5279515;28;20021;-68
2022/08/12 13:42:38;;;;;;;4.85;0.80;;;;;;;;;;5279826;28;20756;-68
2022/08/12 13:45:09;;;;;;;7.25;0.82;;;;;;;;;;5281797;28;20012;-68
2022/08/12 13:47:56;;;;;;;6.20;1.00;;;;;;;;;;5281911;28;20598;-67
2022/08/12 13:50:35;;;;;;;6.20;0.90;;;;;;;;;;5280937;28;20032;-67
2022/08/12 13:53:10;;;;;;;6.68;0.80;;;;;;;;;;5282437;28;20071;-67
2022/08/12 13:55:44;;;;;;;5.43;0.70;;;;;;;;;;5282043;28;20050;-69
2022/08/12 13:58:16;;;;;;;5.38;0.77;;;;;;;;;;5281768;28;20023;-68
2022/08/12 14:00:52;;;;;;;5.32;0.70;;;;;;;;;;5281575;28;20127;-69
2022/08/12 14:03:23;;;;;;;5.18;0.70;;;;;;;;;;5282175;28;20373;-67
2022/08/12 14:05:58;;;;;;;3.03;0.70;;;;;;;;;;5281167;28;20020;-69
2022/08/12 14:08:29;;;;;;;7.15;0.80;;;;;;;;;;5282128;28;20471;-68
2022/08/12 14:11:00;;;;;;;5.25;0.93;;;;;;;;;;5282212;28;20108;-69
2022/08/12 14:13:36;;;;;;;5.40;0.60;;;;;;;;;;5281275;28;20028;-69
2022/08/12 14:16:11;;;;;;;7.30;0.70;;;;;;;;;;5282286;28;20032;-68
2022/08/12 14:18:43;;;;;;;3.90;0.60;;;;;;;;;;5281187;28;20021;-68
2022/08/12 14:21:15;;;;;;;2.30;0.60;;;;;;;;;;5282108;28;20048;-68
2022/08/12 14:23:50;;;;;;;6.97;0.80;;;;;;;;;;5282125;28;20021;-68
2022/08/12 14:26:24;;;;;;;4.13;0.60;;;;;;;;;;5281369;28;20479;-69
2022/08/12 14:28:56;;;;;;;3.25;0.57;;;;;;;;;;5282009;28;20031;-68
2022/08/12 14:31:27;;;;;;;2.80;0.50;;;;;;;;;;5281717;28;20104;-69
2022/08/12 14:33:58;;;;;;;12.67;3.20;;;;;;;;;;5281519;28;20066;-66
2022/08/12 14:36:29;;;;;;;4.38;0.55;;;;;;;;;;5281997;28;20032;-68
2022/08/12 14:39:03;;;;;;;3.65;0.60;;;;;;;;;;5281978;28;20020;-68
2022/08/12 14:41:36;;;;;;;6.22;0.80;;;;;;;;;;5280938;28;20467;-67
2022/08/12 14:44:07;;;;;;;6.20;0.70;;;;;;;;;;5282038;28;20013;-68
2022/08/12 14:46:40;;;;;;;4.68;1.00;;;;;;;;;;5281413;28;20036;-67
2022/08/12 14:49:12;;;;;;;3.10;0.68;;;;;;;;;;5281777;28;20459;-67
2022/08/12 14:51:43;;;;;;;3.70;0.52;;;;;;;;;;5281765;28;20328;-67
2022/08/12 14:54:19;;;;;;;8.03;0.60;;;;;;;;;;5282332;28;20020;-69
2022/08/12 14:56:51;;;;;;;6.20;0.70;;;;;;;;;;5285859;28;20383;-67
2022/08/12 15:02:13;;;;;;;3.47;0.60;;;;;;;;;;5285516;28;20044;-66
2022/08/12 15:04:45;;;;;;;9.98;0.60;;;;;;;;;;5285638;28;20019;-67
2022/08/12 15:07:16;;;;;;;4.82;0.65;;;;;;;;;;5286180;28;20455;-67
2022/08/12 15:09:47;;;;;;;2.53;0.60;;;;;;;;;;5285076;28;20024;-67
2022/08/12 15:12:18;;;;;;;2.03;0.60;;;;;;;;;;5285923;28;20125;-67
2022/08/12 15:14:50;;;;;;;6.85;1.02;;;;;;;;;;5284724;28;20452;-67
2022/08/12 15:17:21;;;;;;;3.67;0.55;;;;;;;;;;5285588;28;20025;-66
2022/08/12 15:19:52;;;;;;;3.67;0.80;;;;;;;;;;5285734;28;20024;-67
2022/08/12 15:22:23;;;;;;;1.65;0.50;;;;;;;;;;5285108;28;20012;-67
2022/08/12 15:24:55;;;;;;;6.53;0.70;;;;;;;;;;5285296;28;20029;-67
2022/08/12 15:27:27;;;;;;;3.13;0.50;;;;;;;;;;5285321;28;20063;-68
2022/08/12 15:29:58;;;;;;;1.67;0.50;;;;;;;;;;5284561;28;20036;-67
2022/08/12 15:32:31;;;;;;;2.83;0.50;;;;;;;;;;5285510;28;20028;-68
2022/08/12 15:35:02;;;;;;;2.20;0.50;;;;;;;;;;5285527;28;20043;-67
2022/08/12 15:37:33;;;;;;;3.10;0.60;;;;;;;;;;5284305;28;20025;-68
2022/08/12 15:40:05;;;;;;;3.60;0.50;;;;;;;;;;5285310;28;20090;-67
2022/08/12 15:42:36;;;;;;;4.70;0.40;;;;;;;;;;5284858;28;20020;-67
2022/08/12 15:45:08;;;;;;;3.35;0.40;;;;;;;;;;5284325;28;20029;-67
2022/08/12 15:47:39;;;;;;;4.28;0.50;;;;;;;;;;5285057;28;20410;-68
2022/08/12 15:50:11;;;;;;;6.18;0.60;;;;;;;;;;5284346;28;20016;-68
2022/08/12 15:52:42;;;;;;;1.60;0.50;;;;;;;;;;5284807;28;20021;-68
2022/08/12 15:55:14;;;;;;;3.00;0.40;;;;;;;;;;5285304;28;20039;-67
2022/08/12 15:57:52;;;;;;;5.57;0.52;;;;;;;;;;5283952;28;20036;-68
2022/08/12 16:00:27;;;;;;;2.20;0.55;;;;;;;;;;5285045;28;20064;-68
2022/08/12 16:03:00;;;;;;;2.25;0.60;;;;;;;;;;5284882;28;20025;-68
2022/08/12 16:05:32;;;;;;;5.45;0.70;;;;;;;;;;5283313;28;20017;-68
2022/08/12 16:08:04;;;;;;;4.57;0.68;;;;;;;;;;5284700;28;20021;-66
2022/08/12 16:10:37;;;;;;;3.75;0.65;;;;;;;;;;5284672;28;20091;-67
2022/08/12 16:13:12;;;;;;;2.85;0.60;;;;;;;;;;5283944;28;20090;-69
2022/08/12 16:15:43;;;;;;;2.63;0.73;;;;;;;;;;5284275;28;20103;-69
2022/08/12 16:18:16;;;;;;;2.75;0.60;;;;;;;;;;5283781;28;20104;-68
2022/08/12 16:20:47;;;;;;;3.30;0.52;;;;;;;;;;5284479;28;20122;-68
2022/08/12 16:23:18;;;;;;;4.07;0.70;;;;;;;;;;5284609;28;20024;-68
2022/08/12 16:25:49;;;;;;;5.03;0.80;;;;;;;;;;5283474;28;20028;-67
2022/08/12 16:28:21;;;;;;;9.13;0.70;;;;;;;;;;5284425;28;20070;-67
2022/08/12 16:30:52;;;;;;;2.80;0.70;;;;;;;;;;5283897;28;20267;-67
2022/08/12 16:33:30;;;;;;;5.27;0.93;;;;;;;;;;5284007;28;20344;-67
2022/08/12 16:36:04;;;;;;;5.38;1.58;;;;;;;;;;5284285;28;20075;-67
2022/08/12 16:38:35;;;;;;;2.72;0.50;;;;;;;;;;5283921;28;20048;-66
2022/08/12 16:41:06;;;;;;;2.10;0.60;;;;;;;;;;5283928;28;20500;-66
2022/08/12 16:43:39;;;;;;;2.95;0.40;;;;;;;;;;5284026;28;20021;-67
2022/08/12 16:46:13;;;;;;;2.13;0.55;;;;;;;;;;5284248;28;20016;-66
2022/08/12 16:48:44;;;;;;;2.75;0.50;;;;;;;;;;5283290;28;20086;-68
2022/08/12 16:51:16;;;;;;;1.67;0.43;;;;;;;;;;5283992;28;20032;-67
2022/08/12 16:53:47;;;;;;;1.75;0.52;;;;;;;;;;5282915;28;20023;-67
2022/08/12 16:56:18;;;;;;;2.73;0.50;;;;;;;;;;5283901;28;20351;-67
2022/08/12 16:58:50;;;;;;;2.83;0.40;;;;;;;;;;5283250;28;20337;-67
2022/08/12 17:01:21;;;;;;;2.15;0.38;;;;;;;;;;5282996;28;20028;-67
2022/08/12 17:04:06;;;;;;;3.17;0.50;;;;;;;;;;5283766;28;20459;-67
2022/08/12 17:06:42;;;;;;;4.82;0.50;;;;;;;;;;5283519;28;20376;-67